createdAt,value
2017-04-20T00:00:40.945Z,75.30
2017-04-20T00:01:40.198Z,76.00
2017-04-20T00:02:39.464Z,75.50
2017-04-20T00:03:38.725Z,74.30
2017-04-20T00:04:38.064Z,75.80
2017-04-20T00:05:38.445Z,74.80
2017-04-20T00:06:37.776Z,75.10
2017-04-20T00:07:38.524Z,75.60
2017-04-20T00:08:38.100Z,75.40
2017-04-20T00:09:36.944Z,75.30
2017-04-20T00:10:36.443Z,75.70
2017-04-20T00:11:35.715Z,74.50
2017-04-20T00:12:35.584Z,74.00
2017-04-20T00:13:34.109Z,73.90
2017-04-20T00:14:33.375Z,75.40
2017-04-20T00:15:32.718Z,76.10
2017-04-20T00:16:31.251Z,76.00
2017-04-20T00:17:30.535Z,76.00
2017-04-20T00:18:29.060Z,76.10
2017-04-20T00:19:28.327Z,77.20
2017-04-20T00:20:28.357Z,77.60
2017-04-20T00:21:27.635Z,77.20
2017-04-20T00:22:26.905Z,77.30
2017-04-20T00:23:25.410Z,77.20
2017-04-20T00:24:24.720Z,75.90
2017-04-20T00:25:23.992Z,76.20
2017-04-20T00:26:23.251Z,76.70
2017-04-20T00:27:22.536Z,76.80
2017-04-20T00:28:21.801Z,77.00
2017-04-20T00:29:21.745Z,77.70
2017-04-20T00:30:21.043Z,77.10
2017-04-20T00:31:20.375Z,76.60
2017-04-20T00:32:19.676Z,76.90
2017-04-20T00:33:18.953Z,77.90
2017-04-20T00:34:17.447Z,77.90
2017-04-20T00:35:16.733Z,77.40
2017-04-20T00:36:16.027Z,77.50
2017-04-20T00:37:14.600Z,77.40
2017-04-20T00:38:14.271Z,77.40
2017-04-20T00:39:13.908Z,77.40
2017-04-20T00:40:12.424Z,77.30
2017-04-20T00:41:11.648Z,77.60
2017-04-20T00:42:11.268Z,77.20
2017-04-20T00:43:10.520Z,78.30
2017-04-20T00:44:09.749Z,79.00
2017-04-20T00:45:09.004Z,79.40
2017-04-20T00:46:08.235Z,79.70
2017-04-20T00:47:08.076Z,79.60
2017-04-20T00:48:08.421Z,79.40
2017-04-20T00:49:07.651Z,79.60
2017-04-20T00:50:06.889Z,80.20
2017-04-20T00:51:06.115Z,80.10
2017-04-20T00:52:05.427Z,80.70
2017-04-20T00:53:04.659Z,81.20
2017-04-20T00:54:04.519Z,80.10
2017-04-20T00:55:05.227Z,80.40
2017-04-20T00:56:04.460Z,79.40
2017-04-20T00:57:03.741Z,78.70
2017-04-20T00:58:02.210Z,78.70
2017-04-20T00:59:01.495Z,77.90
2017-04-20T01:00:00.752Z,77.10
2017-04-20T01:01:00.007Z,78.00
2017-04-20T01:02:00.301Z,78.90
2017-04-20T01:02:59.539Z,79.70
2017-04-20T01:03:58.771Z,79.20
2017-04-20T01:04:58.255Z,79.60
2017-04-20T01:05:57.867Z,80.50
2017-04-20T01:06:57.132Z,79.80
2017-04-20T01:07:56.403Z,79.70
2017-04-20T01:08:55.194Z,79.60
2017-04-20T01:09:54.435Z,79.20
2017-04-20T01:10:53.668Z,78.90
2017-04-20T01:11:52.935Z,78.80
2017-04-20T01:12:52.188Z,79.30
2017-04-20T01:13:51.432Z,79.20
2017-04-20T01:14:51.016Z,77.80
2017-04-20T01:15:50.665Z,78.60
2017-04-20T01:16:49.964Z,78.70
2017-04-20T01:17:49.223Z,77.70
2017-04-20T01:18:48.687Z,78.40
2017-04-20T01:19:47.942Z,78.20
2017-04-20T01:20:47.166Z,77.50
2017-04-20T01:21:46.404Z,77.70
2017-04-20T01:22:45.967Z,77.10
2017-04-20T01:23:45.220Z,78.70
2017-04-20T01:24:44.490Z,79.10
2017-04-20T01:25:43.748Z,78.70
2017-04-20T01:26:42.973Z,78.90
2017-04-20T01:27:42.578Z,78.50
2017-04-20T01:28:42.159Z,78.40
2017-04-20T01:29:40.648Z,78.40
2017-04-20T01:30:40.112Z,78.80
2017-04-20T01:31:39.331Z,78.20
2017-04-20T01:32:38.576Z,78.70
2017-04-20T01:33:38.153Z,79.40
2017-04-20T01:34:38.280Z,79.40
2017-04-20T01:35:37.588Z,78.70
2017-04-20T01:36:36.905Z,78.50
2017-04-20T01:37:36.379Z,79.10
2017-04-20T01:38:35.777Z,79.00
2017-04-20T01:39:35.851Z,79.90
2017-04-20T01:40:34.391Z,79.90
2017-04-20T01:41:33.738Z,81.80
2017-04-20T01:42:33.465Z,81.80
2017-04-20T01:43:32.947Z,82.50
2017-04-20T01:44:32.375Z,80.50
2017-04-20T01:45:31.657Z,80.20
2017-04-20T01:46:30.964Z,80.90
2017-04-20T01:47:31.563Z,81.60
2017-04-20T01:48:31.889Z,82.40
2017-04-20T01:49:31.385Z,82.60
2017-04-20T01:50:30.648Z,82.60
2017-04-20T01:51:29.976Z,82.10
2017-04-20T01:52:29.937Z,82.40
2017-04-20T01:53:28.480Z,82.40
2017-04-20T01:54:26.984Z,82.50
2017-04-20T01:55:26.991Z,81.30
2017-04-20T01:56:25.484Z,81.10
2017-04-20T01:57:24.789Z,79.80
2017-04-20T01:58:23.292Z,79.80
2017-04-20T01:59:22.635Z,82.90
2017-04-20T02:00:23.632Z,82.90
2017-04-20T02:01:22.916Z,83.40
2017-04-20T02:02:22.544Z,83.30
2017-04-20T02:03:21.808Z,83.20
2017-04-20T02:04:21.097Z,82.20
2017-04-20T02:05:20.405Z,81.90
2017-04-20T02:06:19.684Z,81.00
2017-04-20T02:07:18.533Z,80.80
2017-04-20T02:08:17.860Z,80.80
2017-04-20T02:09:17.353Z,80.40
2017-04-20T02:10:16.619Z,81.50
2017-04-20T02:11:15.965Z,82.40
2017-04-20T02:12:15.819Z,81.50
2017-04-20T02:13:15.220Z,80.60
2017-04-20T02:14:14.108Z,80.60
2017-04-20T02:15:13.856Z,81.70
2017-04-20T02:16:13.459Z,80.40
2017-04-20T02:17:12.776Z,80.70
2017-04-20T02:18:12.436Z,80.60
2017-04-20T02:19:12.011Z,81.30
2017-04-20T02:20:11.275Z,81.80
2017-04-20T02:21:10.148Z,81.70
2017-04-20T02:22:09.424Z,81.10
2017-04-20T02:23:08.749Z,81.10
2017-04-20T02:24:08.827Z,82.40
2017-04-20T02:25:08.456Z,82.60
2017-04-20T02:26:08.431Z,81.00
2017-04-20T02:27:08.588Z,80.40
2017-04-20T02:28:07.895Z,81.20
2017-04-20T02:29:07.532Z,81.30
2017-04-20T02:30:06.819Z,82.30
2017-04-20T02:31:06.103Z,82.80
2017-04-20T02:32:05.404Z,82.90
2017-04-20T02:33:04.704Z,81.60
2017-04-20T02:34:04.349Z,81.60
2017-04-20T02:35:03.634Z,81.20
2017-04-20T02:36:03.652Z,82.60
2017-04-20T02:37:03.339Z,83.40
2017-04-20T02:38:02.982Z,83.20
2017-04-20T02:39:01.532Z,83.20
2017-04-20T02:40:00.853Z,83.30
2017-04-20T02:41:00.133Z,82.90
2017-04-20T02:41:59.413Z,82.70
2017-04-20T02:42:59.041Z,82.20
2017-04-20T02:43:58.321Z,81.70
2017-04-20T02:44:57.600Z,82.00
2017-04-20T02:45:57.261Z,82.10
2017-04-20T02:46:57.283Z,83.40
2017-04-20T02:47:56.549Z,84.60
2017-04-20T02:48:56.044Z,85.40
2017-04-20T02:49:55.312Z,85.30
2017-04-20T02:50:54.988Z,83.30
2017-04-20T02:51:54.286Z,82.50
2017-04-20T02:52:53.552Z,83.10
2017-04-20T02:53:53.736Z,83.00
2017-04-20T02:54:52.605Z,83.00
2017-04-20T02:55:51.120Z,81.80
2017-04-20T02:56:50.412Z,84.80
2017-04-20T02:57:49.735Z,84.90
2017-04-20T02:58:49.356Z,85.10
2017-04-20T02:59:47.924Z,85.10
2017-04-20T03:00:46.755Z,85.00
2017-04-20T03:01:45.300Z,85.20
2017-04-20T03:02:44.566Z,85.80
2017-04-20T03:03:43.864Z,85.60
2017-04-20T03:04:43.488Z,86.30
2017-04-20T03:05:43.132Z,86.10
2017-04-20T03:06:42.420Z,85.30
2017-04-20T03:07:41.688Z,84.60
2017-04-20T03:08:41.302Z,84.90
2017-04-20T03:09:40.612Z,85.90
2017-04-20T03:10:40.803Z,86.60
2017-04-20T03:11:40.092Z,86.40
2017-04-20T03:12:39.571Z,86.00
2017-04-20T03:13:38.869Z,86.40
2017-04-20T03:14:37.600Z,86.40
2017-04-20T03:15:36.147Z,86.40
2017-04-20T03:16:35.420Z,86.50
2017-04-20T03:17:33.940Z,86.50
2017-04-20T03:18:32.443Z,86.70
2017-04-20T03:19:32.451Z,86.50
2017-04-20T03:20:31.724Z,85.70
2017-04-20T03:21:31.016Z,85.90
2017-04-20T03:22:30.626Z,86.70
2017-04-20T03:23:29.883Z,86.80
2017-04-20T03:24:28.380Z,86.80
2017-04-20T03:25:28.414Z,87.30
2017-04-20T03:26:27.695Z,87.40
2017-04-20T03:27:26.989Z,87.60
2017-04-20T03:28:26.257Z,87.00
2017-04-20T03:29:25.624Z,86.30
2017-04-20T03:30:25.219Z,86.20
2017-04-20T03:31:24.856Z,86.10
2017-04-20T03:32:24.136Z,86.20
2017-04-20T03:33:23.453Z,86.20
2017-04-20T03:34:22.337Z,86.20
2017-04-20T03:35:21.687Z,87.00
2017-04-20T03:36:20.991Z,87.30
2017-04-20T03:37:20.252Z,86.30
2017-04-20T03:38:19.523Z,86.10
2017-04-20T03:39:18.816Z,85.20
2017-04-20T03:40:17.656Z,85.20
2017-04-20T03:41:16.932Z,85.50
2017-04-20T03:42:16.560Z,85.60
2017-04-20T03:43:15.832Z,85.70
2017-04-20T03:44:15.464Z,86.40
2017-04-20T03:45:14.963Z,85.00
2017-04-20T03:46:14.260Z,83.60
2017-04-20T03:47:13.529Z,83.80
2017-04-20T03:48:12.792Z,84.40
2017-04-20T03:49:12.397Z,84.00
2017-04-20T03:50:11.721Z,84.50
2017-04-20T03:51:11.037Z,85.30
2017-04-20T03:52:10.127Z,85.30
2017-04-20T03:53:09.417Z,86.00
2017-04-20T03:54:07.932Z,86.00
2017-04-20T03:55:07.188Z,86.60
2017-04-20T03:56:05.747Z,86.60
2017-04-20T03:57:04.345Z,86.80
2017-04-20T03:58:03.666Z,87.80
2017-04-20T03:59:02.966Z,87.80
2017-04-20T04:00:02.288Z,86.80
2017-04-20T04:01:01.558Z,86.60
2017-04-20T04:02:00.059Z,87.30
2017-04-20T04:02:59.397Z,86.30
2017-04-20T04:03:58.712Z,86.80
2017-04-20T04:04:57.237Z,86.70
2017-04-20T04:05:56.503Z,88.20
2017-04-20T04:06:55.771Z,88.00
2017-04-20T04:07:55.091Z,87.40
2017-04-20T04:08:53.629Z,87.30
2017-04-20T04:09:53.327Z,87.70
2017-04-20T04:10:52.620Z,87.80
2017-04-20T04:11:51.897Z,87.40
2017-04-20T04:12:51.179Z,86.90
2017-04-20T04:13:50.490Z,86.10
2017-04-20T04:14:49.785Z,86.00
2017-04-20T04:15:49.068Z,86.40
2017-04-20T04:16:49.039Z,85.90
2017-04-20T04:17:48.632Z,85.00
2017-04-20T04:18:47.895Z,84.40
2017-04-20T04:19:47.192Z,84.90
2017-04-20T04:20:47.773Z,84.80
2017-04-20T04:21:47.106Z,85.70
2017-04-20T04:22:47.120Z,85.70
2017-04-20T04:23:46.383Z,84.60
2017-04-20T04:24:45.876Z,84.80
2017-04-20T04:25:45.692Z,84.30
2017-04-20T04:26:44.944Z,84.50
2017-04-20T04:27:44.223Z,85.00
2017-04-20T04:28:43.517Z,84.90
2017-04-20T04:29:42.886Z,84.90
2017-04-20T04:30:43.233Z,85.20
2017-04-20T04:31:42.575Z,85.40
2017-04-20T04:32:41.096Z,85.30
2017-04-20T04:33:40.364Z,84.90
2017-04-20T04:34:39.639Z,84.80
2017-04-20T04:35:39.260Z,84.80
2017-04-20T04:36:38.528Z,85.30
2017-04-20T04:37:37.411Z,85.30
2017-04-20T04:38:37.440Z,84.30
2017-04-20T04:39:36.721Z,84.10
2017-04-20T04:40:36.036Z,83.40
2017-04-20T04:41:35.340Z,84.00
2017-04-20T04:42:34.864Z,83.90
2017-04-20T04:43:33.436Z,83.90
2017-04-20T04:44:32.208Z,83.60
2017-04-20T04:45:32.675Z,84.70
2017-04-20T04:46:31.981Z,84.90
2017-04-20T04:47:31.287Z,84.60
2017-04-20T04:48:30.580Z,83.30
2017-04-20T04:49:29.888Z,83.00
2017-04-20T04:50:29.903Z,82.60
2017-04-20T04:51:29.905Z,82.70
2017-04-20T04:52:30.271Z,83.00
2017-04-20T04:53:29.570Z,82.40
2017-04-20T04:54:29.076Z,81.70
2017-04-20T04:55:28.378Z,81.00
2017-04-20T04:56:27.652Z,80.10
2017-04-20T04:57:26.945Z,77.80
2017-04-20T04:58:26.227Z,75.10
2017-04-20T04:59:26.114Z,72.30
2017-04-20T05:00:25.404Z,70.10
2017-04-20T05:01:24.773Z,68.10
2017-04-20T05:02:24.040Z,66.10
2017-04-20T05:03:22.532Z,66.10
2017-04-20T05:04:21.779Z,65.10
2017-04-20T05:05:21.043Z,63.80
2017-04-20T05:06:20.370Z,61.40
2017-04-20T05:07:19.668Z,60.90
2017-04-20T05:08:18.267Z,60.90
2017-04-20T05:09:17.859Z,58.90
2017-04-20T05:10:17.145Z,58.30
2017-04-20T05:11:16.412Z,57.50
2017-04-20T05:12:15.689Z,56.50
2017-04-20T05:13:14.997Z,56.30
2017-04-20T05:14:13.500Z,56.30
2017-04-20T05:15:12.796Z,55.40
2017-04-20T05:16:13.140Z,54.20
2017-04-20T05:17:12.402Z,53.90
2017-04-20T05:18:11.679Z,53.60
2017-04-20T05:19:10.622Z,53.50
2017-04-20T05:20:09.907Z,53.00
2017-04-20T05:21:09.533Z,53.10
2017-04-20T05:22:09.136Z,53.20
2017-04-20T05:23:09.500Z,52.10
2017-04-20T05:24:08.755Z,52.10
2017-04-20T05:25:08.793Z,51.50
2017-04-20T05:26:08.048Z,50.30
2017-04-20T05:27:06.545Z,50.30
2017-04-20T05:28:05.825Z,49.10
2017-04-20T05:29:05.086Z,48.90
2017-04-20T05:30:04.756Z,47.60
2017-04-20T05:31:04.084Z,47.10
2017-04-20T05:32:03.362Z,46.60
2017-04-20T05:33:03.286Z,45.90
2017-04-20T05:34:02.528Z,45.30
2017-04-20T05:35:01.767Z,45.00
2017-04-20T05:36:01.893Z,45.50
2017-04-20T05:37:01.380Z,46.00
2017-04-20T05:37:59.862Z,45.90
2017-04-20T05:38:59.112Z,44.70
2017-04-20T05:39:58.365Z,43.70
2017-04-20T05:40:57.684Z,42.30
2017-04-20T05:41:56.200Z,42.20
2017-04-20T05:42:55.512Z,41.40
2017-04-20T05:43:54.755Z,40.20
2017-04-20T05:44:54.143Z,39.50
2017-04-20T05:45:53.396Z,39.80
2017-04-20T05:46:52.684Z,39.40
2017-04-20T05:47:51.960Z,38.90
2017-04-20T05:48:51.323Z,38.60
2017-04-20T05:49:49.818Z,38.60
2017-04-20T05:50:49.105Z,38.30
2017-04-20T05:51:48.653Z,37.30
2017-04-20T05:52:47.943Z,37.00
2017-04-20T05:53:47.328Z,36.70
2017-04-20T05:54:46.660Z,36.20
2017-04-20T05:55:45.943Z,35.70
2017-04-20T05:56:45.967Z,35.70
2017-04-20T05:57:45.484Z,35.50
2017-04-20T05:58:44.743Z,35.40
2017-04-20T05:59:44.024Z,34.60
2017-04-20T06:00:43.331Z,34.70
2017-04-20T06:01:42.605Z,34.20
2017-04-20T06:02:42.647Z,33.90
2017-04-20T06:03:41.970Z,34.20
2017-04-20T06:04:41.277Z,33.70
2017-04-20T06:05:41.296Z,34.00
2017-04-20T06:06:40.599Z,33.80
2017-04-20T06:07:40.955Z,33.80
2017-04-20T06:08:40.297Z,33.40
2017-04-20T06:09:40.313Z,32.80
2017-04-20T06:10:39.631Z,33.10
2017-04-20T06:11:38.942Z,33.40
2017-04-20T06:12:38.263Z,33.80
2017-04-20T06:13:36.768Z,33.70
2017-04-20T06:14:36.032Z,33.40
2017-04-20T06:15:35.307Z,33.10
2017-04-20T06:16:34.823Z,33.20
2017-04-20T06:17:33.384Z,33.20
2017-04-20T06:18:31.924Z,33.50
2017-04-20T06:19:31.204Z,33.80
2017-04-20T06:20:30.584Z,33.40
2017-04-20T06:21:30.285Z,33.10
2017-04-20T06:22:29.623Z,33.00
2017-04-20T06:23:28.893Z,33.10
2017-04-20T06:24:28.203Z,33.30
2017-04-20T06:25:27.503Z,33.30
2017-04-20T06:26:27.552Z,33.70
2017-04-20T06:27:26.825Z,33.20
2017-04-20T06:28:26.092Z,33.20
2017-04-20T06:29:25.371Z,33.30
2017-04-20T06:30:25.288Z,32.30
2017-04-20T06:31:24.586Z,32.50
2017-04-20T06:32:23.865Z,32.80
2017-04-20T06:33:23.157Z,33.10
2017-04-20T06:34:22.427Z,33.50
2017-04-20T06:35:21.777Z,33.50
2017-04-20T06:36:21.188Z,33.50
2017-04-20T06:37:20.474Z,33.90
2017-04-20T06:38:19.761Z,33.90
2017-04-20T06:39:19.045Z,33.70
2017-04-20T06:40:18.725Z,33.90
2017-04-20T06:41:18.027Z,34.20
2017-04-20T06:42:17.491Z,34.10
2017-04-20T06:43:16.767Z,33.40
2017-04-20T06:44:15.276Z,33.40
2017-04-20T06:45:14.531Z,32.20
2017-04-20T06:46:13.788Z,31.70
2017-04-20T06:47:12.267Z,31.70
2017-04-20T06:48:10.804Z,31.50
2017-04-20T06:49:10.055Z,31.60
2017-04-20T06:50:09.316Z,31.90
2017-04-20T06:51:08.591Z,31.30
2017-04-20T06:52:07.904Z,31.20
2017-04-20T06:53:06.412Z,31.20
2017-04-20T06:54:05.721Z,30.80
2017-04-20T06:55:04.979Z,31.20
2017-04-20T06:56:04.596Z,31.60
2017-04-20T06:57:04.249Z,31.80
2017-04-20T06:58:04.243Z,31.50
2017-04-20T06:59:03.532Z,32.10
2017-04-20T07:00:02.831Z,31.60
2017-04-20T07:01:01.420Z,31.50
2017-04-20T07:02:00.733Z,31.50
2017-04-20T07:03:00.064Z,32.00
2017-04-20T07:03:58.957Z,32.00
2017-04-20T07:04:58.247Z,33.80
2017-04-20T07:05:57.624Z,34.20
2017-04-20T07:06:56.996Z,35.10
2017-04-20T07:07:56.284Z,34.90
2017-04-20T07:08:55.582Z,34.30
2017-04-20T07:09:54.963Z,33.40
2017-04-20T07:10:53.501Z,33.40
2017-04-20T07:11:52.935Z,32.70
2017-04-20T07:12:52.226Z,32.00
2017-04-20T07:13:51.519Z,31.60
2017-04-20T07:14:50.805Z,32.10
2017-04-20T07:15:50.293Z,31.60
2017-04-20T07:16:49.896Z,31.40
2017-04-20T07:17:49.185Z,30.80
2017-04-20T07:18:47.747Z,30.80
2017-04-20T07:19:47.017Z,31.40
2017-04-20T07:20:46.976Z,31.10
2017-04-20T07:21:47.051Z,31.20
2017-04-20T07:22:46.657Z,31.20
2017-04-20T07:23:46.186Z,32.00
2017-04-20T07:24:44.751Z,32.00
2017-04-20T07:25:43.276Z,31.80
2017-04-20T07:26:42.537Z,31.20
2017-04-20T07:27:41.792Z,30.50
2017-04-20T07:28:41.615Z,29.90
2017-04-20T07:29:40.957Z,30.40
2017-04-20T07:30:40.259Z,30.10
2017-04-20T07:31:39.508Z,29.80
2017-04-20T07:32:38.752Z,30.00
2017-04-20T07:33:38.228Z,29.60
2017-04-20T07:34:37.467Z,28.40
2017-04-20T07:35:36.748Z,27.20
2017-04-20T07:36:36.427Z,25.90
2017-04-20T07:37:35.951Z,28.50
2017-04-20T07:38:35.267Z,28.60
2017-04-20T07:39:34.802Z,29.00
2017-04-20T07:40:34.090Z,28.70
2017-04-20T07:41:33.401Z,28.40
2017-04-20T07:42:32.651Z,28.10
2017-04-20T07:43:31.968Z,28.00
2017-04-20T07:44:31.583Z,28.50
2017-04-20T07:45:30.911Z,28.00
2017-04-20T07:46:30.163Z,27.90
2017-04-20T07:47:28.696Z,27.90
2017-04-20T07:48:27.960Z,26.80
2017-04-20T07:49:27.792Z,27.20
2017-04-20T07:50:27.072Z,27.90
2017-04-20T07:51:26.334Z,27.60
2017-04-20T07:52:25.625Z,27.80
2017-04-20T07:53:24.901Z,27.20
2017-04-20T07:54:24.390Z,28.10
2017-04-20T07:55:23.660Z,29.30
2017-04-20T07:56:23.157Z,28.80
2017-04-20T07:57:22.443Z,28.70
2017-04-20T07:58:21.713Z,28.00
2017-04-20T07:59:20.987Z,27.30
2017-04-20T08:00:26.030Z,27.00
2017-04-20T08:01:37.607Z,27.20
2017-04-20T08:02:37.249Z,27.00
2017-04-20T08:03:36.844Z,27.40
2017-04-20T08:04:36.873Z,27.70
2017-04-20T08:06:35.792Z,27.60
2017-04-20T08:07:35.252Z,27.50
2017-04-20T08:08:34.527Z,27.60
2017-04-20T08:09:33.782Z,27.50
2017-04-20T08:10:33.084Z,27.50
2017-04-20T08:11:32.345Z,27.70
2017-04-20T08:12:31.608Z,28.00
2017-04-20T08:13:31.098Z,27.80
2017-04-20T08:14:30.364Z,27.50
2017-04-20T08:15:29.632Z,27.40
2017-04-20T08:16:28.932Z,26.30
2017-04-20T08:17:28.209Z,25.70
2017-04-20T08:18:27.480Z,25.90
2017-04-20T08:19:27.105Z,25.90
2017-04-20T08:20:26.382Z,26.10
2017-04-20T08:21:25.980Z,26.10
2017-04-20T08:22:25.636Z,26.00
2017-04-20T08:23:24.911Z,25.30
2017-04-20T08:24:24.408Z,25.00
2017-04-20T08:25:22.908Z,24.70
2017-04-20T08:26:22.224Z,23.90
2017-04-20T08:27:21.479Z,23.90
2017-04-20T08:28:20.760Z,24.80
2017-04-20T08:29:20.028Z,26.00
2017-04-20T08:30:20.035Z,26.10
2017-04-20T08:31:18.534Z,26.10
2017-04-20T08:32:17.792Z,25.50
2017-04-20T08:33:17.077Z,25.40
2017-04-20T08:34:16.379Z,25.60
2017-04-20T08:35:15.649Z,25.00
2017-04-20T08:36:15.271Z,24.50
2017-04-20T08:37:14.527Z,25.30
2017-04-20T08:38:13.799Z,25.30
2017-04-20T08:39:13.060Z,25.30
2017-04-20T08:40:12.358Z,26.40
2017-04-20T08:41:11.608Z,25.60
2017-04-20T08:42:10.841Z,25.60
2017-04-20T08:43:10.006Z,25.60
2017-04-20T08:44:09.228Z,24.90
2017-04-20T08:45:08.788Z,25.00
2017-04-20T08:46:08.581Z,25.70
2017-04-20T08:47:08.339Z,25.90
2017-04-20T08:48:07.768Z,25.50
2017-04-20T08:49:07.335Z,25.80
2017-04-20T08:50:06.563Z,26.00
2017-04-20T08:51:06.877Z,25.50
2017-04-20T08:52:06.495Z,25.50
2017-04-20T08:53:05.725Z,26.30
2017-04-20T08:54:05.291Z,26.50
2017-04-20T08:55:04.864Z,26.20
2017-04-20T08:56:04.017Z,26.20
2017-04-20T08:57:03.263Z,26.40
2017-04-20T08:58:02.865Z,26.50
2017-04-20T08:59:02.109Z,26.80
2017-04-20T09:00:01.476Z,26.60
2017-04-20T09:01:00.697Z,26.70
2017-04-20T09:01:59.919Z,26.00
2017-04-20T09:02:59.255Z,26.30
2017-04-20T09:03:58.529Z,25.50
2017-04-20T09:04:57.771Z,25.90
2017-04-20T09:05:57.016Z,26.50
2017-04-20T09:06:56.464Z,25.60
2017-04-20T09:07:56.034Z,25.50
2017-04-20T09:08:55.312Z,25.30
2017-04-20T09:09:54.625Z,25.40
2017-04-20T09:10:53.851Z,24.80
2017-04-20T09:11:53.439Z,24.00
2017-04-20T09:12:52.880Z,23.90
2017-04-20T09:13:52.112Z,24.70
2017-04-20T09:14:51.343Z,24.00
2017-04-20T09:15:49.885Z,24.00
2017-04-20T09:16:49.131Z,26.20
2017-04-20T09:17:48.727Z,26.50
2017-04-20T09:18:48.765Z,25.70
2017-04-20T09:19:47.996Z,25.70
2017-04-20T09:20:47.612Z,26.30
2017-04-20T09:21:48.280Z,27.10
2017-04-20T09:22:47.514Z,27.90
2017-04-20T09:23:46.741Z,27.10
2017-04-20T09:24:45.208Z,27.10
2017-04-20T09:25:44.108Z,26.60
2017-04-20T09:26:43.388Z,24.80
2017-04-20T09:27:42.653Z,25.80
2017-04-20T09:28:41.920Z,25.80
2017-04-20T09:29:41.127Z,25.50
2017-04-20T09:30:40.356Z,24.00
2017-04-20T09:31:39.596Z,24.30
2017-04-20T09:32:38.934Z,24.50
2017-04-20T09:33:39.321Z,24.60
2017-04-20T09:34:38.553Z,24.50
2017-04-20T09:35:37.704Z,24.50
2017-04-20T09:36:36.434Z,24.50
2017-04-20T09:37:35.664Z,23.70
2017-04-20T09:38:34.581Z,23.60
2017-04-20T09:39:34.417Z,23.00
2017-04-20T09:40:34.211Z,23.00
2017-04-20T09:41:33.504Z,23.10
2017-04-20T09:42:33.019Z,23.40
2017-04-20T09:43:32.283Z,22.70
2017-04-20T09:44:31.544Z,24.10
2017-04-20T09:45:30.079Z,24.10
2017-04-20T09:46:29.684Z,23.70
2017-04-20T09:47:28.955Z,23.10
2017-04-20T09:48:28.276Z,23.40
2017-04-20T09:49:27.536Z,22.60
2017-04-20T09:50:26.912Z,22.70
2017-04-20T09:51:26.204Z,23.30
2017-04-20T09:52:25.512Z,22.80
2017-04-20T09:53:24.780Z,23.00
2017-04-20T09:54:24.066Z,23.00
2017-04-20T09:55:22.565Z,23.00
2017-04-20T09:56:21.835Z,22.70
2017-04-20T09:57:21.504Z,22.70
2017-04-20T09:58:20.339Z,22.70
2017-04-20T09:59:19.629Z,23.40
2017-04-20T10:00:19.106Z,23.10
2017-04-20T10:01:18.744Z,23.00
2017-04-20T10:02:18.012Z,22.30
2017-04-20T10:03:17.318Z,22.60
2017-04-20T10:04:16.632Z,22.80
2017-04-20T10:05:16.242Z,22.30
2017-04-20T10:06:15.496Z,22.20
2017-04-20T10:07:14.744Z,22.80
2017-04-20T10:08:14.007Z,23.70
2017-04-20T10:09:13.343Z,24.20
2017-04-20T10:10:14.069Z,24.50
2017-04-20T10:11:13.564Z,25.20
2017-04-20T10:12:12.076Z,25.20
2017-04-20T10:13:11.411Z,25.00
2017-04-20T10:14:10.673Z,24.70
2017-04-20T10:15:10.709Z,24.60
2017-04-20T10:16:10.014Z,24.30
2017-04-20T10:17:09.751Z,24.40
2017-04-20T10:18:09.164Z,24.40
2017-04-20T10:19:08.860Z,24.30
2017-04-20T10:20:08.284Z,23.60
2017-04-20T10:21:07.597Z,23.80
2017-04-20T10:22:07.140Z,23.80
2017-04-20T10:23:06.395Z,23.90
2017-04-20T10:24:06.692Z,24.00
2017-04-20T10:25:05.987Z,23.80
2017-04-20T10:26:05.260Z,24.50
2017-04-20T10:27:04.273Z,24.10
2017-04-20T10:28:03.516Z,24.10
2017-04-20T10:29:02.764Z,24.20
2017-04-20T10:30:02.109Z,22.90
2017-04-20T10:31:01.420Z,24.10
2017-04-20T10:32:01.009Z,24.50
2017-04-20T10:33:00.623Z,25.00
2017-04-20T10:33:59.896Z,25.20
2017-04-20T10:34:59.153Z,25.20
2017-04-20T10:35:58.768Z,25.90
2017-04-20T10:36:58.200Z,26.10
2017-04-20T10:37:57.452Z,25.10
2017-04-20T10:38:58.460Z,24.30
2017-04-20T10:39:57.790Z,25.50
2017-04-20T10:40:57.077Z,25.40
2017-04-20T10:41:57.364Z,25.40
2017-04-20T10:42:56.632Z,25.10
2017-04-20T10:43:55.735Z,25.50
2017-04-20T10:44:55.051Z,25.80
2017-04-20T10:45:55.086Z,25.70
2017-04-20T10:46:54.352Z,25.70
2017-04-20T10:47:53.653Z,25.00
2017-04-20T10:48:53.124Z,24.80
2017-04-20T10:49:52.412Z,23.60
2017-04-20T10:50:51.703Z,24.10
2017-04-20T10:51:50.980Z,24.30
2017-04-20T10:52:51.427Z,24.70
2017-04-20T10:53:50.664Z,25.20
2017-04-20T10:54:49.919Z,25.40
2017-04-20T10:55:49.176Z,25.70
2017-04-20T10:56:48.879Z,25.40
2017-04-20T10:57:48.480Z,24.80
2017-04-20T10:58:47.764Z,24.60
2017-04-20T10:59:47.044Z,23.30
2017-04-20T11:00:46.327Z,24.60
2017-04-20T11:01:45.610Z,24.60
2017-04-20T11:02:44.131Z,24.60
2017-04-20T11:03:44.272Z,24.00
2017-04-20T11:04:43.531Z,25.20
2017-04-20T11:05:43.908Z,25.10
2017-04-20T11:06:43.173Z,24.30
2017-04-20T11:07:41.665Z,24.30
2017-04-20T11:08:41.715Z,25.10
2017-04-20T11:09:40.975Z,24.90
2017-04-20T11:10:40.480Z,24.40
2017-04-20T11:11:39.731Z,24.50
2017-04-20T11:12:39.196Z,24.20
2017-04-20T11:13:38.677Z,24.70
2017-04-20T11:14:37.993Z,24.40
2017-04-20T11:15:37.251Z,23.90
2017-04-20T11:16:36.522Z,24.20
2017-04-20T11:17:36.629Z,24.70
2017-04-20T11:18:35.929Z,24.90
2017-04-20T11:19:35.864Z,25.20
2017-04-20T11:20:35.144Z,25.10
2017-04-20T11:21:34.748Z,24.30
2017-04-20T11:22:34.023Z,24.50
2017-04-20T11:23:33.286Z,23.80
2017-04-20T11:24:32.715Z,23.20
2017-04-20T11:25:32.205Z,23.50
2017-04-20T11:26:31.626Z,24.40
2017-04-20T11:27:31.483Z,25.20
2017-04-20T11:28:30.742Z,25.30
2017-04-20T11:29:31.824Z,24.70
2017-04-20T11:30:31.471Z,25.00
2017-04-20T11:31:30.827Z,24.90
2017-04-20T11:32:30.092Z,25.20
2017-04-20T11:33:30.103Z,25.50
2017-04-20T11:34:29.385Z,25.10
2017-04-20T11:35:28.801Z,25.30
2017-04-20T11:36:28.108Z,25.20
2017-04-20T11:37:27.760Z,26.10
2017-04-20T11:38:27.265Z,26.10
2017-04-20T11:39:26.687Z,25.30
2017-04-20T11:40:25.969Z,25.00
2017-04-20T11:41:25.649Z,23.70
2017-04-20T11:42:24.896Z,23.20
2017-04-20T11:43:24.241Z,23.10
2017-04-20T11:44:23.492Z,24.00
2017-04-20T11:45:22.787Z,24.70
2017-04-20T11:46:22.073Z,25.10
2017-04-20T11:47:20.585Z,25.00
2017-04-20T11:48:20.155Z,24.90
2017-04-20T11:49:18.911Z,24.80
2017-04-20T11:50:18.456Z,23.20
2017-04-20T11:51:17.731Z,23.20
2017-04-20T11:52:17.199Z,23.00
2017-04-20T11:53:16.488Z,22.70
2017-04-20T11:54:16.660Z,23.30
2017-04-20T11:55:16.319Z,23.50
2017-04-20T11:56:14.848Z,23.40
2017-04-20T11:57:14.256Z,24.10
2017-04-20T11:58:13.540Z,24.30
2017-04-20T11:59:12.061Z,24.30
2017-04-20T12:00:11.672Z,24.70
2017-04-20T12:01:11.184Z,25.60
2017-04-20T12:02:09.683Z,25.60
2017-04-20T12:03:08.947Z,24.40
2017-04-20T12:04:08.220Z,24.90
2017-04-20T12:05:07.485Z,24.80
2017-04-20T12:06:06.768Z,25.40
2017-04-20T12:07:06.424Z,26.10
2017-04-20T12:08:07.240Z,26.30
2017-04-20T12:09:06.508Z,25.20
2017-04-20T12:10:05.772Z,24.80
2017-04-20T12:11:06.157Z,24.00
2017-04-20T12:12:05.449Z,24.80
2017-04-20T12:13:04.759Z,24.10
2017-04-20T12:14:03.268Z,24.10
2017-04-20T12:15:02.569Z,23.90
2017-04-20T12:16:01.892Z,23.80
2017-04-20T12:17:01.158Z,23.90
2017-04-20T12:18:00.434Z,24.20
2017-04-20T12:18:59.736Z,24.50
2017-04-20T12:19:59.012Z,24.20
2017-04-20T12:20:58.293Z,24.00
2017-04-20T12:21:57.614Z,23.80
2017-04-20T12:22:56.920Z,24.20
2017-04-20T12:23:56.195Z,23.90
2017-04-20T12:24:56.288Z,23.50
2017-04-20T12:25:55.536Z,23.70
2017-04-20T12:26:54.618Z,23.70
2017-04-20T12:27:54.242Z,24.30
2017-04-20T12:28:52.723Z,24.30
2017-04-20T12:29:51.968Z,24.00
2017-04-20T12:30:51.277Z,24.20
2017-04-20T12:31:50.752Z,24.20
2017-04-20T12:32:50.028Z,24.30
2017-04-20T12:33:49.517Z,24.00
2017-04-20T12:34:48.792Z,23.90
2017-04-20T12:35:48.073Z,23.70
2017-04-20T12:36:46.612Z,23.70
2017-04-20T12:37:46.608Z,23.70
2017-04-20T12:38:46.428Z,24.50
2017-04-20T12:39:45.701Z,24.40
2017-04-20T12:40:45.711Z,24.10
2017-04-20T12:41:45.312Z,23.50
2017-04-20T12:42:43.843Z,23.50
2017-04-20T12:43:42.304Z,23.60
2017-04-20T12:44:41.136Z,24.40
2017-04-20T12:45:41.144Z,23.40